createdAt,value
2019-04-21T00:00:35.499Z,1001.20
2019-04-21T00:01:38.746Z,1001.31
2019-04-21T00:02:37.740Z,1001.24
2019-04-21T00:03:40.792Z,1001.26
2019-04-21T00:04:48.217Z,1001.17
2019-04-21T00:05:53.312Z,1001.18
2019-04-21T00:07:01.276Z,1001.24
2019-04-21T00:07:50.810Z,1001.20
2019-04-21T00:08:56.076Z,1001.20
2019-04-21T00:10:59.409Z,1001.23
2019-04-21T00:11:59.140Z,1001.24
2019-04-21T00:12:52.060Z,1001.27
2019-04-21T00:13:46.776Z,1001.22
2019-04-21T00:14:46.135Z,1001.26
2019-04-21T00:15:40.756Z,1001.21
2019-04-21T00:16:44.119Z,1001.20
2019-04-21T00:17:35.075Z,1001.20
2019-04-21T00:18:40.886Z,1001.29
2019-04-21T00:19:37.053Z,1001.19
2019-04-21T00:20:40.851Z,1001.20
2019-04-21T00:21:40.474Z,1001.19
2019-04-21T00:22:44.454Z,1001.24
2019-04-21T00:23:55.361Z,1001.18
2019-04-21T00:24:50.732Z,1001.18
2019-04-21T00:25:50.021Z,1001.21
2019-04-21T00:26:55.675Z,1001.16
2019-04-21T00:27:51.959Z,1001.16
2019-04-21T00:28:59.412Z,1001.13
2019-04-21T00:29:51.905Z,1001.05
2019-04-21T00:30:50.512Z,1001.08
2019-04-21T00:31:45.757Z,1001.09
2019-04-21T00:32:44.999Z,1001.08
2019-04-21T00:33:39.051Z,1001.07
2019-04-21T00:34:34.275Z,1001.11
2019-04-21T00:35:41.468Z,1001.01
2019-04-21T00:36:47.373Z,1001.04
2019-04-21T00:37:53.404Z,1001.01
2019-04-21T00:39:08.309Z,1000.98
2019-04-21T00:40:01.880Z,1000.98
2019-04-21T00:40:56.518Z,1000.93
2019-04-21T00:41:53.696Z,1000.97
2019-04-21T00:42:48.444Z,1000.96
2019-04-21T00:43:49.365Z,1000.94
2019-04-21T00:44:54.229Z,1000.97
2019-04-21T00:45:44.933Z,1000.92
2019-04-21T00:46:47.647Z,1000.92
2019-04-21T00:47:51.118Z,1000.93
2019-04-21T00:48:55.027Z,1000.93
2019-04-21T00:49:56.561Z,1000.97
2019-04-21T00:51:10.700Z,1000.93
2019-04-21T00:52:02.206Z,1000.91
2019-04-21T00:53:00.757Z,1000.93
2019-04-21T00:55:10.067Z,1000.84
2019-04-21T00:55:59.874Z,1000.84
2019-04-21T00:57:01.326Z,1000.90
2019-04-21T00:57:58.650Z,1000.87
2019-04-21T00:59:01.232Z,1000.87
2019-04-21T00:59:52.254Z,1000.82
2019-04-21T01:00:57.087Z,1000.85
2019-04-21T01:01:55.593Z,1000.81
2019-04-21T01:02:57.637Z,1000.81
2019-04-21T01:03:58.109Z,1000.80
2019-04-21T01:05:01.220Z,1000.81
2019-04-21T01:06:10.045Z,1000.77
2019-04-21T01:06:55.957Z,1000.77
2019-04-21T01:07:55.897Z,1000.78
2019-04-21T01:08:53.183Z,1000.70
2019-04-21T01:09:48.821Z,1000.72
2019-04-21T01:10:49.181Z,1000.73
2019-04-21T01:11:57.576Z,1000.74
2019-04-21T01:12:58.989Z,1000.75
2019-04-21T01:14:01.932Z,1000.72
2019-04-21T01:14:58.131Z,1000.65
2019-04-21T01:15:54.564Z,1000.69
2019-04-21T01:16:57.394Z,1000.70
2019-04-21T01:17:53.212Z,1000.69
2019-04-21T01:18:59.107Z,1000.64
2019-04-21T01:19:50.624Z,1000.67
2019-04-21T01:20:33.194Z,1000.68
2019-04-21T01:21:32.184Z,1000.65
2019-04-21T01:22:32.195Z,1000.62
2019-04-21T01:23:32.173Z,1000.62
2019-04-21T01:24:36.165Z,1000.60
2019-04-21T01:25:39.322Z,1000.65
2019-04-21T01:26:43.815Z,1000.64
2019-04-21T01:27:55.125Z,1000.61
2019-04-21T01:28:52.326Z,1000.58
2019-04-21T01:29:56.607Z,1000.60
2019-04-21T01:30:52.034Z,1000.57
2019-04-21T01:31:48.488Z,1000.60
2019-04-21T01:32:53.296Z,1000.58
2019-04-21T01:33:59.552Z,1000.55
2019-04-21T01:34:56.191Z,1000.64
2019-04-21T01:35:55.513Z,1000.60
2019-04-21T01:36:53.026Z,1000.63
2019-04-21T01:37:55.736Z,1000.63
2019-04-21T01:38:55.105Z,1000.62
2019-04-21T01:39:58.380Z,1000.61
2019-04-21T01:40:57.146Z,1000.59
2019-04-21T01:41:57.343Z,1000.61
2019-04-21T01:42:53.967Z,1000.63
2019-04-21T01:43:50.333Z,1000.68
2019-04-21T01:44:53.530Z,1000.58
2019-04-21T01:45:49.378Z,1000.63
2019-04-21T01:46:48.671Z,1000.60
2019-04-21T01:47:52.137Z,1000.61
2019-04-21T01:48:49.391Z,1000.70
2019-04-21T01:49:43.200Z,1000.59
2019-04-21T01:50:53.871Z,1000.65
2019-04-21T01:52:02.894Z,1000.63
2019-04-21T01:52:57.705Z,1000.62
2019-04-21T01:53:56.475Z,1000.61
2019-04-21T01:54:55.850Z,1000.66
2019-04-21T01:55:54.555Z,1000.59
2019-04-21T01:56:53.905Z,1000.62
2019-04-21T01:57:51.221Z,1000.65
2019-04-21T01:58:42.931Z,1000.61
2019-04-21T01:59:48.900Z,1000.62
2019-04-21T02:00:48.486Z,1000.61
2019-04-21T02:01:52.749Z,1000.58
2019-04-21T02:03:04.310Z,1000.60
2019-04-21T02:04:57.282Z,1000.61
2019-04-21T02:06:00.014Z,1000.54
2019-04-21T02:07:01.337Z,1000.53
2019-04-21T02:07:52.363Z,1000.45
2019-04-21T02:08:49.047Z,1000.53
2019-04-21T02:10:03.377Z,1000.54
2019-04-21T02:11:00.303Z,1000.52
2019-04-21T02:11:56.562Z,1000.46
2019-04-21T02:12:50.878Z,1000.48
2019-04-21T02:14:02.018Z,1000.43
2019-04-21T02:15:00.749Z,1000.45
2019-04-21T02:15:56.065Z,1000.41
2019-04-21T02:16:54.021Z,1000.43
2019-04-21T02:17:54.062Z,1000.44
2019-04-21T02:18:49.648Z,1000.38
2019-04-21T02:19:51.736Z,1000.40
2019-04-21T02:20:41.332Z,1000.39
2019-04-21T02:21:47.457Z,1000.40
2019-04-21T02:23:10.023Z,1000.44
2019-04-21T02:24:01.174Z,1000.43
2019-04-21T02:24:58.358Z,1000.41
2019-04-21T02:25:57.430Z,1000.40
2019-04-21T02:26:57.252Z,1000.41
2019-04-21T02:28:01.143Z,1000.36
2019-04-21T02:29:01.941Z,1000.37
2019-04-21T02:29:55.959Z,1000.38
2019-04-21T02:32:21.717Z,1000.32
2019-04-21T02:33:08.823Z,1000.27
2019-04-21T02:34:04.499Z,1000.25
2019-04-21T02:36:15.459Z,1000.31
2019-04-21T02:37:17.685Z,1000.25
2019-04-21T02:38:08.947Z,1000.28
2019-04-21T02:40:57.312Z,1000.24
2019-04-21T02:42:05.399Z,1000.27
2019-04-21T02:43:05.394Z,1000.23
2019-04-21T02:44:10.379Z,1000.21
2019-04-21T02:45:03.848Z,1000.21
2019-04-21T02:46:05.462Z,1000.21
2019-04-21T02:47:09.227Z,1000.20
2019-04-21T02:48:14.643Z,1000.12
2019-04-21T02:49:11.286Z,1000.17
2019-04-21T02:50:13.413Z,1000.14
2019-04-21T02:51:03.948Z,1000.15
2019-04-21T02:52:29.180Z,1000.12
2019-04-21T02:53:07.014Z,1000.07
2019-04-21T02:54:32.306Z,1000.12
2019-04-21T02:55:03.854Z,1000.09
2019-04-21T02:56:00.679Z,1000.09
2019-04-21T02:59:05.337Z,1000.06
2019-04-21T03:00:06.831Z,1000.03
2019-04-21T03:01:07.512Z,1000.12
2019-04-21T03:03:26.125Z,1000.08
2019-04-21T03:04:00.667Z,1000.09
2019-04-21T03:05:11.219Z,1000.11
2019-04-21T03:06:18.675Z,1000.01
2019-04-21T03:07:09.437Z,1000.08
2019-04-21T03:08:05.711Z,999.99
2019-04-21T03:09:10.956Z,1000.09
2019-04-21T03:09:57.914Z,1000.04
2019-04-21T03:11:10.390Z,999.99
2019-04-21T03:13:08.983Z,999.97
2019-04-21T03:14:08.955Z,1000.02
2019-04-21T03:15:06.223Z,999.96
2019-04-21T03:16:10.101Z,999.97
2019-04-21T03:17:05.619Z,999.97
2019-04-21T03:18:04.478Z,999.92
2019-04-21T03:20:03.005Z,999.90
2019-04-21T03:21:15.917Z,999.98
2019-04-21T03:22:05.134Z,999.92
2019-04-21T03:23:16.167Z,999.93
2019-04-21T03:24:05.556Z,999.91
2019-04-21T03:26:10.274Z,999.97
2019-04-21T03:29:03.638Z,999.89
2019-04-21T03:36:37.174Z,999.82
2019-04-21T03:38:13.062Z,999.89
2019-04-21T03:39:01.671Z,999.80
2019-04-21T03:39:59.345Z,999.84
2019-04-21T03:41:08.580Z,999.85
2019-04-21T03:42:07.384Z,999.86
2019-04-21T03:43:07.904Z,999.83
2019-04-21T03:44:13.040Z,999.83
2019-04-21T03:45:23.419Z,999.77
2019-04-21T03:45:58.270Z,999.76
2019-04-21T03:47:07.812Z,999.82
2019-04-21T03:48:01.062Z,999.80
2019-04-21T03:51:09.439Z,999.78
2019-04-21T03:52:15.083Z,999.75
2019-04-21T03:53:03.523Z,999.74
2019-04-21T03:54:00.017Z,999.75
2019-04-21T03:55:25.530Z,999.72
2019-04-21T03:57:19.983Z,999.69
2019-04-21T03:58:19.673Z,999.66
2019-04-21T04:00:06.242Z,999.65
2019-04-21T04:04:00.768Z,999.60
2019-04-21T04:05:03.658Z,999.62
2019-04-21T04:06:09.103Z,999.58
2019-04-21T04:07:12.930Z,999.63
2019-04-21T04:08:17.253Z,999.64
2019-04-21T04:09:09.249Z,999.59
2019-04-21T04:10:08.415Z,999.61
2019-04-21T04:11:58.402Z,999.63
2019-04-21T04:13:09.590Z,999.55
2019-04-21T04:14:12.923Z,999.60
2019-04-21T04:15:03.016Z,999.57
2019-04-21T04:17:14.575Z,999.61
2019-04-21T04:18:04.175Z,999.56
2019-04-21T04:18:57.834Z,999.55
2019-04-21T04:20:22.756Z,999.56
2019-04-21T04:21:16.859Z,999.55
2019-04-21T04:22:06.042Z,999.53
2019-04-21T04:23:03.362Z,999.59
2019-04-21T04:25:07.404Z,999.52
2019-04-21T04:27:08.067Z,999.53
2019-04-21T04:30:07.974Z,999.45
2019-04-21T04:32:00.917Z,999.49
2019-04-21T04:33:00.581Z,999.44
2019-04-21T04:34:10.418Z,999.48
2019-04-21T04:35:03.358Z,999.54
2019-04-21T04:37:05.636Z,999.55
2019-04-21T04:38:03.663Z,999.47
2019-04-21T04:39:23.033Z,999.55
2019-04-21T04:41:06.280Z,999.54
2019-04-21T04:42:21.781Z,999.57
2019-04-21T04:43:07.500Z,999.55
2019-04-21T04:44:11.540Z,999.52
2019-04-21T04:45:58.897Z,999.57
2019-04-21T04:49:11.120Z,999.41
2019-04-21T04:51:14.395Z,999.42
2019-04-21T04:52:56.072Z,999.39
2019-04-21T04:53:58.707Z,999.44
2019-04-21T04:56:06.104Z,999.42
2019-04-21T04:57:08.583Z,999.43
2019-04-21T05:00:13.600Z,999.38
2019-04-21T05:01:24.677Z,999.32
2019-04-21T05:02:15.216Z,999.40
2019-04-21T05:03:03.341Z,999.38
2019-04-21T05:04:10.173Z,999.39
2019-04-21T05:06:14.677Z,999.35
2019-04-21T05:07:11.947Z,999.37
2019-04-21T05:08:24.362Z,999.44
2019-04-21T05:09:15.431Z,999.42
2019-04-21T05:09:59.508Z,999.49
2019-04-21T05:11:07.916Z,999.53
2019-04-21T05:11:55.409Z,999.49
2019-04-21T05:13:04.222Z,999.43
2019-04-21T05:14:59.263Z,999.47
2019-04-21T05:16:02.180Z,999.44
2019-04-21T05:17:02.564Z,999.41
2019-04-21T05:17:57.930Z,999.45
2019-04-21T05:21:03.834Z,999.60
2019-04-21T05:22:01.708Z,999.56
2019-04-21T05:22:54.485Z,999.53
2019-04-21T05:23:54.110Z,999.48
2019-04-21T05:24:52.363Z,999.64
2019-04-21T05:25:48.096Z,999.58
2019-04-21T05:26:49.409Z,999.46
2019-04-21T05:27:49.768Z,999.46
2019-04-21T05:28:44.887Z,999.40
2019-04-21T05:29:53.581Z,999.49
2019-04-21T05:30:58.413Z,999.62
2019-04-21T05:32:09.183Z,999.61
2019-04-21T05:32:53.971Z,999.63
2019-04-21T05:33:53.030Z,999.66
2019-04-21T05:34:52.266Z,999.65
2019-04-21T05:35:48.942Z,999.64
2019-04-21T05:36:52.034Z,999.66
2019-04-21T05:37:50.384Z,999.63
2019-04-21T05:38:47.634Z,999.61
2019-04-21T05:39:48.969Z,999.72
2019-04-21T05:40:45.413Z,999.66
2019-04-21T05:41:41.403Z,999.71
2019-04-21T05:42:45.883Z,999.70
2019-04-21T05:43:54.417Z,999.73
2019-04-21T05:44:59.839Z,999.74
2019-04-21T05:45:52.008Z,999.78
2019-04-21T05:47:01.855Z,999.71
2019-04-21T05:47:56.302Z,999.73
2019-04-21T05:48:52.277Z,999.74
2019-04-21T05:49:51.276Z,999.76
2019-04-21T05:50:50.418Z,999.75
2019-04-21T05:51:46.586Z,999.71
2019-04-21T05:52:45.952Z,999.68
2019-04-21T05:53:56.981Z,999.73
2019-04-21T05:54:57.312Z,999.81
2019-04-21T05:56:52.643Z,999.72
2019-04-21T05:57:53.317Z,999.80
2019-04-21T05:58:54.143Z,999.78
2019-04-21T05:59:51.655Z,999.82
2019-04-21T06:01:06.659Z,999.84
2019-04-21T06:01:57.956Z,999.82
2019-04-21T06:02:57.812Z,999.80
2019-04-21T06:03:57.137Z,999.79
2019-04-21T06:06:00.931Z,999.77
2019-04-21T06:07:02.102Z,999.79
2019-04-21T06:07:52.397Z,999.75
2019-04-21T06:08:48.021Z,999.74
2019-04-21T06:09:56.655Z,999.78
2019-04-21T06:10:53.958Z,999.79
2019-04-21T06:11:51.437Z,999.76
2019-04-21T06:12:59.264Z,999.80
2019-04-21T06:13:55.185Z,999.84
2019-04-21T06:14:59.106Z,999.75
2019-04-21T06:16:55.533Z,999.75
2019-04-21T06:17:58.200Z,999.78
2019-04-21T06:19:01.648Z,999.79
2019-04-21T06:19:56.925Z,999.79
2019-04-21T06:20:54.576Z,999.76
2019-04-21T06:21:50.887Z,999.77
2019-04-21T06:22:51.999Z,999.75
2019-04-21T06:23:50.181Z,999.77
2019-04-21T06:25:21.607Z,999.77
2019-04-21T06:27:10.935Z,999.74
2019-04-21T06:27:55.080Z,999.73
2019-04-21T06:28:50.375Z,999.77
2019-04-21T06:29:55.687Z,999.78
2019-04-21T06:31:01.535Z,999.74
2019-04-21T06:32:52.797Z,999.70
2019-04-21T06:33:51.558Z,999.73
2019-04-21T06:36:12.681Z,999.73
2019-04-21T06:36:57.283Z,999.64
2019-04-21T06:37:49.223Z,999.65
2019-04-21T06:40:10.020Z,999.65
2019-04-21T06:41:00.383Z,999.63
2019-04-21T06:41:51.092Z,999.63
2019-04-21T06:43:08.318Z,999.66
2019-04-21T06:45:53.987Z,999.63
2019-04-21T06:46:51.722Z,999.67
2019-04-21T06:48:02.180Z,999.72
2019-04-21T06:48:55.709Z,999.73
2019-04-21T06:49:50.788Z,999.65
2019-04-21T06:50:52.542Z,999.65
2019-04-21T06:51:58.138Z,999.73
2019-04-21T06:52:53.923Z,999.72
2019-04-21T06:54:02.082Z,999.68
2019-04-21T06:54:54.870Z,999.71
2019-04-21T06:55:52.503Z,999.75
2019-04-21T06:56:51.609Z,999.75
2019-04-21T06:57:53.299Z,999.61
2019-04-21T06:58:51.416Z,999.65
2019-04-21T06:59:51.008Z,999.61
2019-04-21T07:00:50.952Z,999.72
2019-04-21T07:02:22.500Z,999.72
2019-04-21T07:03:01.230Z,999.66
2019-04-21T07:04:02.048Z,999.64
2019-04-21T07:04:56.000Z,999.66
2019-04-21T07:05:57.287Z,999.66
2019-04-21T07:06:56.317Z,999.68
2019-04-21T07:08:07.598Z,999.68
2019-04-21T07:09:02.532Z,999.65
2019-04-21T07:09:57.439Z,999.64
2019-04-21T07:10:51.794Z,999.67
2019-04-21T07:11:47.854Z,999.65
2019-04-21T07:12:51.110Z,999.73
2019-04-21T07:14:01.748Z,999.72
2019-04-21T07:14:56.284Z,999.71
2019-04-21T07:15:50.195Z,999.71
2019-04-21T07:17:49.909Z,999.64
2019-04-21T07:19:01.102Z,999.69
2019-04-21T07:19:57.145Z,999.69
2019-04-21T07:20:56.582Z,999.58
2019-04-21T07:21:52.549Z,999.64
2019-04-21T07:22:59.512Z,999.60
2019-04-21T07:23:53.762Z,999.64
2019-04-21T07:24:48.226Z,999.62
2019-04-21T07:25:51.935Z,999.58
2019-04-21T07:27:52.678Z,999.66
2019-04-21T07:28:56.871Z,999.60
2019-04-21T07:29:55.609Z,999.63
2019-04-21T07:31:00.524Z,999.64
2019-04-21T07:31:59.171Z,999.62
2019-04-21T07:32:55.307Z,999.63
2019-04-21T07:34:03.640Z,999.66
2019-04-21T07:34:54.598Z,999.59
2019-04-21T07:35:51.813Z,999.62
2019-04-21T07:37:53.614Z,999.62
2019-04-21T07:38:49.739Z,999.58
2019-04-21T07:39:49.374Z,999.57
2019-04-21T07:40:45.501Z,999.55
2019-04-21T07:41:44.080Z,999.57
2019-04-21T07:42:42.899Z,999.53
2019-04-21T07:43:44.134Z,999.53
2019-04-21T07:44:46.079Z,999.55
2019-04-21T07:45:45.981Z,999.49
2019-04-21T07:46:46.424Z,999.50
2019-04-21T07:47:50.677Z,999.53
2019-04-21T07:48:49.446Z,999.50
2019-04-21T07:49:56.167Z,999.51
2019-04-21T07:50:52.057Z,999.45
2019-04-21T07:51:50.938Z,999.48
2019-04-21T07:52:53.607Z,999.43
2019-04-21T07:53:59.655Z,999.49
2019-04-21T07:54:58.510Z,999.45
2019-04-21T07:55:30.205Z,999.47
2019-04-21T07:56:34.952Z,999.45
2019-04-21T07:57:47.883Z,999.44
2019-04-21T07:58:56.340Z,999.43
2019-04-21T07:59:55.144Z,999.46
2019-04-21T08:01:50.039Z,999.43
2019-04-21T08:02:49.581Z,999.51
2019-04-21T08:03:51.963Z,999.46
2019-04-21T08:05:52.696Z,999.31
2019-04-21T08:07:54.225Z,999.30
2019-04-21T08:08:51.072Z,999.28
2019-04-21T08:09:47.313Z,999.30
2019-04-21T08:10:47.079Z,999.30
2019-04-21T08:11:43.088Z,999.33
2019-04-21T08:12:48.914Z,999.27
2019-04-21T08:14:02.105Z,999.30
2019-04-21T08:14:55.707Z,999.32
2019-04-21T08:16:04.707Z,999.28
2019-04-21T08:16:55.572Z,999.28
2019-04-21T08:17:47.136Z,999.28
2019-04-21T08:18:45.621Z,999.24
2019-04-21T08:19:44.610Z,999.24
2019-04-21T08:20:48.055Z,999.26
2019-04-21T08:21:59.840Z,999.29
2019-04-21T08:22:51.733Z,999.24
2019-04-21T08:23:50.311Z,999.24
2019-04-21T08:24:51.865Z,999.25
2019-04-21T08:26:06.491Z,999.26
2019-04-21T08:26:51.435Z,999.25
2019-04-21T08:28:52.397Z,999.16
2019-04-21T08:29:52.211Z,999.20
2019-04-21T08:30:51.185Z,999.17
2019-04-21T08:31:56.251Z,999.16
2019-04-21T08:33:09.215Z,999.09
2019-04-21T08:33:55.322Z,999.16
2019-04-21T08:34:59.492Z,999.19
2019-04-21T08:37:08.754Z,999.12
2019-04-21T08:37:50.807Z,999.13
2019-04-21T08:38:49.568Z,999.13
2019-04-21T08:40:00.637Z,999.14
2019-04-21T08:40:51.590Z,999.08
2019-04-21T08:41:49.615Z,999.09
2019-04-21T08:42:51.056Z,999.08
2019-04-21T08:44:02.515Z,999.07
2019-04-21T08:44:54.188Z,999.11
2019-04-21T08:45:57.340Z,999.07
2019-04-21T08:46:55.107Z,999.11
2019-04-21T08:48:53.028Z,999.06
2019-04-21T08:49:48.633Z,999.08
2019-04-21T08:50:52.595Z,999.00
2019-04-21T08:51:58.391Z,999.07
2019-04-21T08:52:56.415Z,998.98
2019-04-21T08:54:47.203Z,999.00
2019-04-21T08:55:56.601Z,999.07
2019-04-21T08:56:46.675Z,999.07
2019-04-21T08:58:00.882Z,998.95
2019-04-21T08:58:54.191Z,998.95
2019-04-21T08:59:55.138Z,999.01
2019-04-21T09:00:55.202Z,999.03
2019-04-21T09:01:48.794Z,998.94
2019-04-21T09:02:46.666Z,998.95
2019-04-21T09:03:54.491Z,998.91
2019-04-21T09:04:45.832Z,998.89
2019-04-21T09:05:52.599Z,998.94
2019-04-21T09:06:58.914Z,998.90
2019-04-21T09:07:53.704Z,998.92
2019-04-21T09:08:52.262Z,998.85
2019-04-21T09:09:48.762Z,998.85
2019-04-21T09:10:51.820Z,998.85
2019-04-21T09:11:50.916Z,998.81
2019-04-21T09:12:49.135Z,998.85
2019-04-21T09:13:50.654Z,998.82
2019-04-21T09:14:50.563Z,998.82
2019-04-21T09:15:46.289Z,998.82
2019-04-21T09:16:40.815Z,998.85
2019-04-21T09:17:41.414Z,998.77
2019-04-21T09:18:40.440Z,998.80
2019-04-21T09:20:07.565Z,998.79
2019-04-21T09:20:52.582Z,998.71
2019-04-21T09:21:50.284Z,998.75
2019-04-21T09:22:47.751Z,998.73
2019-04-21T09:23:45.319Z,998.69
2019-04-21T09:24:46.844Z,998.75
2019-04-21T09:26:46.609Z,998.70
2019-04-21T09:27:42.479Z,998.68
2019-04-21T09:28:39.647Z,998.72
2019-04-21T09:29:36.725Z,998.71
2019-04-21T09:30:33.787Z,998.68
2019-04-21T09:31:33.855Z,998.63
2019-04-21T09:32:31.377Z,998.64
2019-04-21T09:33:33.464Z,998.57
2019-04-21T09:34:33.181Z,998.58
2019-04-21T09:35:29.166Z,998.50
2019-04-21T09:36:36.131Z,998.53
2019-04-21T09:37:39.977Z,998.59
2019-04-21T09:38:36.275Z,998.48
2019-04-21T09:39:31.480Z,998.55
2019-04-21T09:40:33.914Z,998.48
2019-04-21T09:41:29.640Z,998.48
2019-04-21T09:42:35.960Z,998.50
2019-04-21T09:43:36.415Z,998.47
2019-04-21T09:44:33.309Z,998.42
2019-04-21T09:45:28.582Z,998.48
2019-04-21T09:46:27.626Z,998.42
2019-04-21T09:47:35.064Z,998.43
2019-04-21T09:48:33.601Z,998.41
2019-04-21T09:49:31.739Z,998.40
2019-04-21T09:50:28.055Z,998.47
2019-04-21T09:51:28.077Z,998.38
2019-04-21T09:52:37.144Z,998.38
2019-04-21T09:53:32.856Z,998.37
2019-04-21T09:54:32.012Z,998.33
2019-04-21T09:55:36.437Z,998.43
2019-04-21T09:56:36.145Z,998.32
2019-04-21T09:57:40.700Z,998.31
2019-04-21T09:58:34.655Z,998.27
2019-04-21T09:59:33.529Z,998.30
2019-04-21T10:00:31.375Z,998.20
2019-04-21T10:01:37.146Z,998.25
2019-04-21T10:02:37.627Z,998.22
2019-04-21T10:03:36.109Z,998.23
2019-04-21T10:04:29.000Z,998.20
2019-04-21T10:05:27.351Z,998.20
2019-04-21T10:06:28.251Z,998.09
2019-04-21T10:07:34.283Z,998.11
2019-04-21T10:08:27.902Z,998.16
2019-04-21T10:09:26.928Z,998.05
2019-04-21T10:10:27.518Z,998.09
2019-04-21T10:11:26.982Z,998.06
2019-04-21T10:12:26.860Z,998.02
2019-04-21T10:13:27.452Z,998.02
2019-04-21T10:14:26.891Z,998.02
2019-04-21T10:15:28.326Z,998.04
2019-04-21T10:16:26.840Z,998.01
2019-04-21T10:17:27.575Z,997.94
2019-04-21T10:18:27.316Z,997.94
2019-04-21T10:19:27.496Z,997.91
2019-04-21T10:20:26.838Z,997.86
2019-04-21T10:21:28.014Z,997.86
2019-04-21T10:22:26.804Z,997.83
2019-04-21T10:23:27.439Z,997.84
2019-04-21T10:24:26.754Z,997.75
2019-04-21T10:25:26.749Z,997.81
2019-04-21T10:26:28.455Z,997.73
2019-04-21T10:27:27.334Z,997.80
2019-04-21T10:28:26.921Z,997.81
2019-04-21T10:29:30.042Z,997.81
2019-04-21T10:30:28.705Z,997.79
2019-04-21T10:31:27.025Z,997.69
2019-04-21T10:32:28.105Z,997.68
2019-04-21T10:33:26.666Z,997.74
2019-04-21T10:34:27.398Z,997.68
2019-04-21T10:35:26.654Z,997.60
2019-04-21T10:36:26.881Z,997.63
2019-04-21T10:37:38.933Z,997.61
2019-04-21T10:38:36.626Z,997.59
2019-04-21T10:39:27.624Z,997.60
2019-04-21T10:40:27.814Z,997.57
2019-04-21T10:41:27.565Z,997.57
2019-04-21T10:42:27.003Z,997.63
2019-04-21T10:43:27.465Z,997.58
2019-04-21T10:44:27.333Z,997.51
2019-04-21T10:45:26.593Z,997.52
2019-04-21T10:46:26.715Z,997.54
2019-04-21T10:47:26.989Z,997.40
2019-04-21T10:48:26.520Z,997.45
2019-04-21T10:49:26.674Z,997.41
2019-04-21T10:50:26.780Z,997.44
2019-04-21T10:51:26.530Z,997.43
2019-04-21T10:52:29.223Z,997.42
2019-04-21T10:53:27.029Z,997.32
2019-04-21T10:54:37.895Z,997.34
2019-04-21T10:55:45.087Z,997.33
2019-04-21T10:56:33.236Z,997.34
2019-04-21T10:57:28.450Z,997.26
2019-04-21T10:58:26.715Z,997.22
2019-04-21T10:59:26.882Z,997.24
2019-04-21T11:00:26.408Z,997.21
2019-04-21T11:01:27.342Z,997.16
2019-04-21T11:02:26.480Z,997.17
2019-04-21T11:03:26.868Z,997.14
2019-04-21T11:04:32.362Z,997.23
2019-04-21T11:05:27.362Z,997.11
2019-04-21T11:06:26.557Z,997.13
2019-04-21T11:07:31.392Z,997.06
2019-04-21T11:08:32.263Z,997.07
2019-04-21T11:09:28.379Z,997.06
2019-04-21T11:10:27.698Z,997.02
2019-04-21T11:11:26.345Z,997.03
2019-04-21T11:12:26.288Z,997.00
2019-04-21T11:13:26.433Z,996.99
2019-04-21T11:14:27.211Z,996.95
2019-04-21T11:15:27.436Z,996.99
2019-04-21T11:16:26.886Z,996.95
2019-04-21T11:17:26.250Z,996.94
2019-04-21T11:18:26.271Z,997.03
2019-04-21T11:19:26.224Z,996.97
2019-04-21T11:20:26.910Z,996.91
2019-04-21T11:21:27.138Z,997.00
2019-04-21T11:22:26.206Z,996.89
2019-04-21T11:23:26.996Z,996.82
2019-04-21T11:24:27.133Z,996.82
2019-04-21T11:25:26.288Z,996.81
2019-04-21T11:26:27.493Z,996.81
2019-04-21T11:27:26.825Z,996.78
2019-04-21T11:28:27.249Z,996.73
2019-04-21T11:29:26.353Z,996.73
2019-04-21T11:30:27.428Z,996.79
2019-04-21T11:31:27.204Z,996.78
2019-04-21T11:32:27.298Z,996.74
2019-04-21T11:33:27.135Z,996.72
2019-04-21T11:34:27.196Z,996.70
2019-04-21T11:35:27.531Z,996.65
2019-04-21T11:36:27.110Z,996.62
2019-04-21T11:37:26.136Z,996.68
2019-04-21T11:38:29.993Z,996.68
2019-04-21T11:39:39.253Z,996.61
2019-04-21T11:40:27.666Z,996.59
2019-04-21T11:41:26.007Z,996.52
2019-04-21T11:42:26.019Z,996.52
2019-04-21T11:43:25.979Z,996.56
2019-04-21T11:44:27.022Z,996.51
2019-04-21T11:45:26.320Z,996.48
2019-04-21T11:46:26.798Z,996.48
2019-04-21T11:47:25.947Z,996.48
2019-04-21T11:48:26.223Z,996.48
2019-04-21T11:49:27.652Z,996.46
2019-04-21T11:50:25.942Z,996.47
2019-04-21T11:51:26.973Z,996.48
2019-04-21T11:52:26.858Z,996.53
2019-04-21T11:53:25.880Z,996.50
2019-04-21T11:54:26.742Z,996.37
2019-04-21T11:55:28.323Z,996.41
2019-04-21T11:56:27.216Z,996.40
2019-04-21T11:57:30.431Z,996.41
2019-04-21T11:58:27.818Z,996.34
2019-04-21T11:59:25.915Z,996.37
2019-04-21T12:00:25.799Z,996.42
2019-04-21T12:01:25.845Z,996.28
2019-04-21T12:02:25.805Z,996.26
2019-04-21T12:03:27.366Z,996.23
2019-04-21T12:04:25.787Z,996.33
2019-04-21T12:05:25.750Z,996.25
2019-04-21T12:06:32.334Z,996.22
2019-04-21T12:07:27.242Z,996.27
2019-04-21T12:08:34.338Z,996.22
2019-04-21T12:09:27.323Z,996.19
2019-04-21T12:10:25.714Z,996.22
2019-04-21T12:11:25.704Z,996.19
2019-04-21T12:12:25.686Z,996.14
2019-04-21T12:13:25.669Z,996.12
2019-04-21T12:14:25.985Z,996.18
2019-04-21T12:15:27.010Z,996.13
2019-04-21T12:16:25.700Z,996.02
2019-04-21T12:17:25.966Z,996.06
2019-04-21T12:18:28.226Z,996.07
2019-04-21T12:19:26.996Z,996.05
2019-04-21T12:20:26.420Z,996.09
2019-04-21T12:21:28.291Z,996.02
2019-04-21T12:22:29.977Z,995.97
2019-04-21T12:23:26.859Z,995.94
2019-04-21T12:24:26.755Z,995.86
2019-04-21T12:25:25.584Z,995.97
2019-04-21T12:26:26.374Z,995.93
2019-04-21T12:27:25.750Z,995.89
2019-04-21T12:28:25.874Z,995.96
2019-04-21T12:29:26.857Z,995.87
2019-04-21T12:30:25.527Z,995.90
2019-04-21T12:31:25.568Z,995.83
2019-04-21T12:32:26.350Z,995.85
2019-04-21T12:33:25.465Z,995.86
2019-04-21T12:34:25.934Z,995.89
2019-04-21T12:35:26.114Z,995.84
2019-04-21T12:36:25.450Z,995.81
2019-04-21T12:37:26.617Z,995.76
2019-04-21T12:38:35.382Z,995.71
2019-04-21T12:39:27.074Z,995.66
2019-04-21T12:40:26.387Z,995.71
2019-04-21T12:41:26.584Z,995.66
2019-04-21T12:42:26.857Z,995.64
2019-04-21T12:43:26.493Z,995.65
2019-04-21T12:44:25.362Z,995.55
2019-04-21T12:45:26.099Z,995.61
2019-04-21T12:46:25.711Z,995.59
2019-04-21T12:47:25.900Z,995.57
2019-04-21T12:48:26.221Z,995.47
2019-04-21T12:49:25.612Z,995.45
2019-04-21T12:50:25.808Z,995.56
2019-04-21T12:51:25.981Z,995.48
2019-04-21T12:52:25.323Z,995.44
2019-04-21T12:53:25.597Z,995.43
2019-04-21T12:54:25.866Z,995.38
2019-04-21T12:55:30.577Z,995.41
2019-04-21T12:56:27.417Z,995.49
2019-04-21T12:57:25.504Z,995.40
2019-04-21T12:58:25.586Z,995.49
2019-04-21T12:59:27.227Z,995.45
2019-04-21T13:00:25.182Z,995.38
2019-04-21T13:01:25.162Z,995.33
2019-04-21T13:02:25.474Z,995.37
2019-04-21T13:03:26.551Z,995.31
2019-04-21T13:04:26.008Z,995.29
2019-04-21T13:05:25.418Z,995.25
2019-04-21T13:06:25.535Z,995.24
2019-04-21T13:07:25.743Z,995.36
2019-04-21T13:08:25.170Z,995.24
2019-04-21T13:09:27.487Z,995.26
2019-04-21T13:10:26.398Z,995.18
2019-04-21T13:11:25.504Z,995.13
2019-04-21T13:12:25.085Z,995.13
2019-04-21T13:13:26.153Z,995.09
2019-04-21T13:14:26.129Z,995.11
2019-04-21T13:15:25.374Z,995.06
2019-04-21T13:16:25.430Z,995.05
2019-04-21T13:17:25.595Z,995.08
2019-04-21T13:18:25.031Z,995.08
2019-04-21T13:19:25.310Z,995.07
2019-04-21T13:20:25.399Z,995.09
2019-04-21T13:21:24.955Z,995.03
2019-04-21T13:22:25.936Z,995.01
2019-04-21T13:23:25.010Z,994.96
2019-04-21T13:24:26.145Z,994.91
2019-04-21T13:25:25.620Z,994.92
2019-04-21T13:26:32.810Z,994.87
2019-04-21T13:27:26.865Z,994.88
2019-04-21T13:28:24.968Z,994.89
2019-04-21T13:29:25.959Z,994.87
2019-04-21T13:30:24.872Z,994.84
2019-04-21T13:31:24.880Z,994.82
2019-04-21T13:32:24.971Z,994.81